DLH2460 EDDS-EDLP
Flight info
| Callsign | DLH2460 |
|---|---|
| Flight time | 0h 43m |
| Altitude | 22000 |
| Route | TAGIK2H TAGIK Z3 ABUMO N850 EBANA T842 PELUN PELUN3H |
| Aircraft | A20N/M-SDE2E3FGHIRWXY/LB1 |
Departure
| Time | 2026-05-08 09:41 |
|---|---|
| Airport | Stuttgart Airport (EDDS) |
Arrival
| Time | 2026-05-08 10:24 |
|---|---|
| Airport | Paderborn Lippstadt Airport (EDLP) |
| Time | Latitude | Longitude | Altitude | Speed | Heading |
|---|---|---|---|---|---|
| 2026-05-08 09:04 | 48.69223 | 9.20798 | 1288 ft | 0 kts | 345° |
| 2026-05-08 09:31 | 48.69219 | 9.20799 | 1288 ft | 3 kts | 345° |
| 2026-05-08 09:31 | 48.69201 | 9.20807 | 1288 ft | 3 kts | 345° |
| 2026-05-08 09:32 | 48.69188 | 9.20823 | 1288 ft | 3 kts | 271° |
| 2026-05-08 09:32 | 48.69188 | 9.20833 | 1288 ft | 0 kts | 258° |
| 2026-05-08 09:35 | 48.69187 | 9.20827 | 1288 ft | 3 kts | 253° |
| 2026-05-08 09:35 | 48.69163 | 9.20756 | 1288 ft | 7 kts | 254° |
| 2026-05-08 09:35 | 48.69149 | 9.20681 | 1288 ft | 7 kts | 254° |
| 2026-05-08 09:36 | 48.69136 | 9.20609 | 1288 ft | 7 kts | 254° |
| 2026-05-08 09:36 | 48.69122 | 9.20541 | 1288 ft | 6 kts | 250° |
| 2026-05-08 09:36 | 48.69101 | 9.20494 | 1288 ft | 5 kts | 228° |
| 2026-05-08 09:36 | 48.69076 | 9.20454 | 1288 ft | 7 kts | 227° |
| 2026-05-08 09:37 | 48.69051 | 9.20382 | 1288 ft | 9 kts | 252° |
| 2026-05-08 09:37 | 48.69030 | 9.20271 | 1288 ft | 13 kts | 253° |
| 2026-05-08 09:37 | 48.69001 | 9.20122 | 1288 ft | 17 kts | 254° |
| 2026-05-08 09:37 | 48.68962 | 9.19986 | 1288 ft | 11 kts | 236° |
| 2026-05-08 09:38 | 48.68922 | 9.19891 | 1288 ft | 10 kts | 237° |
| 2026-05-08 09:38 | 48.68869 | 9.19874 | 1288 ft | 7 kts | 165° |
| 2026-05-08 09:38 | 48.68829 | 9.19899 | 1288 ft | 5 kts | 144° |
| 2026-05-08 09:38 | 48.68803 | 9.19927 | 1288 ft | 4 kts | 148° |
| 2026-05-08 09:39 | 48.68769 | 9.19948 | 1288 ft | 12 kts | 161° |
| 2026-05-08 09:39 | 48.68674 | 9.19990 | 1288 ft | 14 kts | 162° |
| 2026-05-08 09:39 | 48.68610 | 9.20062 | 1288 ft | 10 kts | 121° |
| 2026-05-08 09:39 | 48.68600 | 9.20149 | 1288 ft | 8 kts | 81° |
| 2026-05-08 09:40 | 48.68623 | 9.20275 | 1288 ft | 34 kts | 73° |
| 2026-05-08 09:40 | 48.68753 | 9.20957 | 1289 ft | 99 kts | 74° |
| 2026-05-08 09:40 | 48.69002 | 9.22254 | 1295 ft | 154 kts | 72° |
| 2026-05-08 09:40 | 48.69278 | 9.23827 | 1772 ft | 157 kts | 75° |
| 2026-05-08 09:41 | 48.69550 | 9.25457 | 2342 ft | 161 kts | 75° |
| 2026-05-08 09:41 | 48.69857 | 9.27126 | 2904 ft | 175 kts | 73° |
| 2026-05-08 09:41 | 48.70239 | 9.29083 | 3237 ft | 212 kts | 74° |
| 2026-05-08 09:41 | 48.70691 | 9.31390 | 3678 ft | 243 kts | 74° |
| 2026-05-08 09:42 | 48.71185 | 9.33926 | 4427 ft | 257 kts | 74° |
| 2026-05-08 09:42 | 48.71699 | 9.36572 | 5306 ft | 266 kts | 74° |
| 2026-05-08 09:42 | 48.72248 | 9.39252 | 6141 ft | 274 kts | 69° |
| 2026-05-08 09:42 | 48.73114 | 9.41856 | 7005 ft | 280 kts | 56° |
| 2026-05-08 09:43 | 48.74477 | 9.43966 | 7881 ft | 283 kts | 32° |
| 2026-05-08 09:43 | 48.76317 | 9.44964 | 8803 ft | 284 kts | 2° |
| 2026-05-08 09:43 | 48.78232 | 9.44427 | 9728 ft | 282 kts | 331° |
| 2026-05-08 09:43 | 48.79881 | 9.42798 | 10523 ft | 289 kts | 321° |
| 2026-05-08 09:44 | 48.81522 | 9.40837 | 10888 ft | 311 kts | 319° |
| 2026-05-08 09:44 | 48.83274 | 9.38690 | 11263 ft | 333 kts | 320° |
| 2026-05-08 09:44 | 48.85116 | 9.36453 | 11933 ft | 343 kts | 320° |
| 2026-05-08 09:44 | 48.87011 | 9.34173 | 12769 ft | 349 kts | 320° |
| 2026-05-08 09:45 | 48.88903 | 9.31904 | 13553 ft | 353 kts | 320° |
| 2026-05-08 09:45 | 48.90847 | 9.29575 | 13997 ft | 356 kts | 320° |
| 2026-05-08 09:45 | 48.92796 | 9.27240 | 14092 ft | 357 kts | 320° |
| 2026-05-08 09:45 | 48.94758 | 9.24888 | 14099 ft | 358 kts | 320° |
| 2026-05-08 09:46 | 48.96719 | 9.22535 | 14095 ft | 358 kts | 320° |
| 2026-05-08 09:46 | 48.98676 | 9.20183 | 14095 ft | 358 kts | 320° |
| 2026-05-08 09:46 | 49.00633 | 9.17831 | 14102 ft | 358 kts | 320° |
| 2026-05-08 09:46 | 49.02586 | 9.15480 | 14103 ft | 358 kts | 320° |
| 2026-05-08 09:47 | 49.04545 | 9.13125 | 14099 ft | 358 kts | 320° |
| 2026-05-08 09:47 | 49.06473 | 9.10801 | 14097 ft | 358 kts | 320° |
| 2026-05-08 09:47 | 49.08437 | 9.08463 | 14106 ft | 358 kts | 320° |
| 2026-05-08 09:47 | 49.10388 | 9.06104 | 14093 ft | 358 kts | 320° |
| 2026-05-08 09:48 | 49.12340 | 9.03729 | 14096 ft | 358 kts | 320° |
| 2026-05-08 09:48 | 49.14290 | 9.01354 | 14102 ft | 358 kts | 320° |
| 2026-05-08 09:48 | 49.16242 | 8.98982 | 14102 ft | 358 kts | 320° |
| 2026-05-08 09:48 | 49.18321 | 8.96864 | 14104 ft | 360 kts | 331° |
| 2026-05-08 09:49 | 49.20683 | 8.95615 | 14103 ft | 363 kts | 348° |
| 2026-05-08 09:49 | 49.23207 | 8.95346 | 14104 ft | 365 kts | 358° |
| 2026-05-08 09:49 | 49.25752 | 8.95495 | 14103 ft | 366 kts | 2° |
| 2026-05-08 09:49 | 49.28257 | 8.95852 | 14106 ft | 366 kts | 4° |
| 2026-05-08 09:50 | 49.30786 | 8.96296 | 14103 ft | 366 kts | 5° |
| 2026-05-08 09:50 | 49.33319 | 8.96751 | 14105 ft | 366 kts | 5° |
| 2026-05-08 09:50 | 49.35853 | 8.97184 | 14110 ft | 366 kts | 4° |
| 2026-05-08 09:50 | 49.38389 | 8.97589 | 14109 ft | 366 kts | 4° |
| 2026-05-08 09:51 | 49.40921 | 8.97969 | 14117 ft | 366 kts | 4° |
| 2026-05-08 09:51 | 49.43459 | 8.98334 | 14112 ft | 366 kts | 4° |
| 2026-05-08 09:51 | 49.45996 | 8.98690 | 14112 ft | 366 kts | 4° |
| 2026-05-08 09:51 | 49.48533 | 8.99042 | 14110 ft | 366 kts | 3° |
| 2026-05-08 09:52 | 49.51073 | 8.99394 | 14108 ft | 366 kts | 3° |
| 2026-05-08 09:52 | 49.53616 | 8.99745 | 14112 ft | 366 kts | 3° |
| 2026-05-08 09:52 | 49.56161 | 9.00095 | 14113 ft | 366 kts | 3° |
| 2026-05-08 09:52 | 49.58670 | 9.00442 | 14110 ft | 366 kts | 3° |
| 2026-05-08 09:53 | 49.61205 | 9.00792 | 14108 ft | 366 kts | 3° |
| 2026-05-08 09:53 | 49.63745 | 9.01147 | 14113 ft | 366 kts | 4° |
| 2026-05-08 09:53 | 49.66288 | 9.01509 | 14111 ft | 367 kts | 4° |
| 2026-05-08 09:53 | 49.68830 | 9.01874 | 14111 ft | 367 kts | 4° |
| 2026-05-08 09:54 | 49.71370 | 9.02240 | 14108 ft | 367 kts | 4° |
| 2026-05-08 09:54 | 49.73908 | 9.02607 | 14111 ft | 367 kts | 4° |
| 2026-05-08 09:54 | 49.76453 | 9.02974 | 14110 ft | 367 kts | 4° |
| 2026-05-08 09:54 | 49.78995 | 9.03342 | 14110 ft | 367 kts | 4° |
| 2026-05-08 09:55 | 49.81541 | 9.03710 | 14115 ft | 367 kts | 4° |
| 2026-05-08 09:55 | 49.84083 | 9.04078 | 14115 ft | 367 kts | 4° |
| 2026-05-08 09:55 | 49.86631 | 9.04446 | 14116 ft | 367 kts | 4° |
| 2026-05-08 09:55 | 49.89175 | 9.04796 | 14118 ft | 367 kts | 1° |
| 2026-05-08 09:56 | 49.91718 | 9.04722 | 14116 ft | 365 kts | 352° |
| 2026-05-08 09:56 | 49.94172 | 9.03972 | 14119 ft | 363 kts | 343° |
| 2026-05-08 09:56 | 49.96596 | 9.02845 | 14120 ft | 363 kts | 340° |
| 2026-05-08 09:56 | 49.98977 | 9.01540 | 14122 ft | 363 kts | 338° |
| 2026-05-08 09:57 | 50.03679 | 8.98705 | 14122 ft | 362 kts | 337° |
| 2026-05-08 09:57 | 50.06024 | 8.97263 | 14122 ft | 362 kts | 337° |
| 2026-05-08 09:57 | 50.08373 | 8.95827 | 14130 ft | 363 kts | 337° |
| 2026-05-08 09:58 | 50.10727 | 8.94401 | 14124 ft | 363 kts | 337° |
| 2026-05-08 09:58 | 50.13108 | 8.93062 | 14123 ft | 364 kts | 342° |
| 2026-05-08 09:58 | 50.15578 | 8.92173 | 14126 ft | 365 kts | 347° |
| 2026-05-08 09:58 | 50.18079 | 8.91478 | 14123 ft | 365 kts | 349° |
| 2026-05-08 09:59 | 50.20594 | 8.90891 | 14122 ft | 365 kts | 351° |
| 2026-05-08 09:59 | 50.23118 | 8.90360 | 14124 ft | 365 kts | 351° |
| 2026-05-08 09:59 | 50.25641 | 8.89852 | 14123 ft | 365 kts | 351° |
| 2026-05-08 09:59 | 50.28163 | 8.89349 | 14123 ft | 365 kts | 351° |
| 2026-05-08 10:00 | 50.30687 | 8.88842 | 14125 ft | 365 kts | 351° |
| 2026-05-08 10:00 | 50.33178 | 8.88335 | 14125 ft | 366 kts | 351° |
| 2026-05-08 10:00 | 50.35701 | 8.87815 | 14127 ft | 366 kts | 351° |
| 2026-05-08 10:00 | 50.38229 | 8.87288 | 14124 ft | 366 kts | 351° |
| 2026-05-08 10:01 | 50.40756 | 8.86759 | 14126 ft | 366 kts | 351° |
| 2026-05-08 10:01 | 50.43284 | 8.86227 | 14127 ft | 366 kts | 351° |
| 2026-05-08 10:01 | 50.45809 | 8.85696 | 14123 ft | 366 kts | 351° |
| 2026-05-08 10:01 | 50.48332 | 8.85165 | 14127 ft | 366 kts | 351° |
| 2026-05-08 10:02 | 50.50861 | 8.84632 | 14126 ft | 366 kts | 351° |
| 2026-05-08 10:02 | 50.53387 | 8.84098 | 14128 ft | 366 kts | 351° |
| 2026-05-08 10:02 | 50.55909 | 8.83566 | 14128 ft | 366 kts | 351° |
| 2026-05-08 10:02 | 50.58435 | 8.83032 | 14133 ft | 366 kts | 351° |
| 2026-05-08 10:03 | 50.60959 | 8.82515 | 14133 ft | 366 kts | 353° |
| 2026-05-08 10:03 | 50.63508 | 8.82424 | 14132 ft | 368 kts | 2° |
| 2026-05-08 10:03 | 50.66059 | 8.82895 | 14135 ft | 368 kts | 7° |
| 2026-05-08 10:03 | 50.68588 | 8.83586 | 14136 ft | 369 kts | 10° |
| 2026-05-08 10:04 | 50.71070 | 8.84395 | 14136 ft | 369 kts | 11° |
| 2026-05-08 10:04 | 50.73607 | 8.85290 | 14142 ft | 369 kts | 12° |
| 2026-05-08 10:04 | 50.76076 | 8.86183 | 14141 ft | 369 kts | 12° |
| 2026-05-08 10:04 | 50.78574 | 8.87087 | 14141 ft | 369 kts | 12° |
| 2026-05-08 10:05 | 50.81079 | 8.87984 | 14138 ft | 369 kts | 12° |
| 2026-05-08 10:05 | 50.83596 | 8.88865 | 14142 ft | 369 kts | 11° |
| 2026-05-08 10:05 | 50.86104 | 8.89716 | 14140 ft | 369 kts | 11° |
| 2026-05-08 10:05 | 50.88618 | 8.90553 | 14141 ft | 369 kts | 11° |
| 2026-05-08 10:06 | 50.91099 | 8.91374 | 14132 ft | 369 kts | 11° |
| 2026-05-08 10:06 | 50.93618 | 8.92205 | 14143 ft | 369 kts | 11° |
| 2026-05-08 10:06 | 50.96137 | 8.93040 | 14145 ft | 369 kts | 11° |
| 2026-05-08 10:06 | 50.98661 | 8.93758 | 14151 ft | 368 kts | 5° |
| 2026-05-08 10:07 | 51.01213 | 8.93774 | 14078 ft | 369 kts | 352° |
| 2026-05-08 10:07 | 51.03703 | 8.92806 | 13835 ft | 369 kts | 336° |
| 2026-05-08 10:07 | 51.05902 | 8.90769 | 13562 ft | 366 kts | 319° |
| 2026-05-08 10:07 | 51.07628 | 8.87844 | 13292 ft | 362 kts | 306° |
| 2026-05-08 10:08 | 51.09033 | 8.84579 | 13031 ft | 361 kts | 301° |
| 2026-05-08 10:08 | 51.10301 | 8.81142 | 12771 ft | 359 kts | 298° |
| 2026-05-08 10:08 | 51.11490 | 8.77652 | 12516 ft | 358 kts | 297° |
| 2026-05-08 10:08 | 51.12658 | 8.74155 | 12244 ft | 357 kts | 297° |
| 2026-05-08 10:09 | 51.13842 | 8.70677 | 11985 ft | 356 kts | 297° |
| 2026-05-08 10:09 | 51.15036 | 8.67223 | 11732 ft | 355 kts | 298° |
| 2026-05-08 10:09 | 51.16235 | 8.63792 | 11480 ft | 354 kts | 298° |
| 2026-05-08 10:09 | 51.17456 | 8.60393 | 11228 ft | 353 kts | 301° |
| 2026-05-08 10:10 | 51.18997 | 8.57350 | 10982 ft | 354 kts | 316° |
| 2026-05-08 10:10 | 51.21027 | 8.55144 | 10735 ft | 356 kts | 334° |
| 2026-05-08 10:10 | 51.22576 | 8.54287 | 10574 ft | 357 kts | 346° |
| 2026-05-08 10:10 | 51.25042 | 8.54009 | 10329 ft | 357 kts | 4° |
| 2026-05-08 10:11 | 51.27499 | 8.54513 | 10084 ft | 355 kts | 9° |
| 2026-05-08 10:11 | 51.29865 | 8.55160 | 9805 ft | 333 kts | 10° |
| 2026-05-08 10:11 | 51.32084 | 8.55784 | 9532 ft | 314 kts | 9° |
| 2026-05-08 10:11 | 51.34177 | 8.56365 | 9260 ft | 298 kts | 9° |
| 2026-05-08 10:12 | 51.36187 | 8.56916 | 8992 ft | 290 kts | 9° |
| 2026-05-08 10:12 | 51.38182 | 8.57457 | 8739 ft | 290 kts | 9° |
| 2026-05-08 10:12 | 51.40147 | 8.57986 | 8487 ft | 289 kts | 9° |
| 2026-05-08 10:12 | 51.42128 | 8.58518 | 8290 ft | 287 kts | 9° |
| 2026-05-08 10:13 | 51.44118 | 8.59052 | 8164 ft | 286 kts | 9° |
| 2026-05-08 10:13 | 51.46049 | 8.59568 | 8044 ft | 285 kts | 9° |
| 2026-05-08 10:13 | 51.48009 | 8.60092 | 7923 ft | 285 kts | 9° |
| 2026-05-08 10:13 | 51.49968 | 8.60617 | 7774 ft | 284 kts | 9° |
| 2026-05-08 10:14 | 51.51919 | 8.61105 | 7530 ft | 284 kts | 6° |
| 2026-05-08 10:14 | 51.53882 | 8.60946 | 7277 ft | 282 kts | 345° |
| 2026-05-08 10:14 | 51.55629 | 8.59583 | 7043 ft | 280 kts | 321° |
| 2026-05-08 10:14 | 51.56858 | 8.57191 | 6800 ft | 277 kts | 296° |
| 2026-05-08 10:15 | 51.57356 | 8.54287 | 6544 ft | 273 kts | 271° |
| 2026-05-08 10:15 | 51.57069 | 8.51300 | 6274 ft | 271 kts | 247° |
| 2026-05-08 10:15 | 51.56185 | 8.48644 | 6016 ft | 269 kts | 236° |
| 2026-05-08 10:15 | 51.55154 | 8.46146 | 5767 ft | 267 kts | 234° |
| 2026-05-08 10:16 | 51.54108 | 8.43670 | 5614 ft | 268 kts | 235° |
| 2026-05-08 10:16 | 51.53062 | 8.41179 | 5484 ft | 268 kts | 235° |
| 2026-05-08 10:16 | 51.52029 | 8.38694 | 5363 ft | 267 kts | 235° |
| 2026-05-08 10:16 | 51.51005 | 8.36211 | 5230 ft | 266 kts | 238° |
| 2026-05-08 10:17 | 51.50250 | 8.33543 | 5056 ft | 260 kts | 257° |
| 2026-05-08 10:17 | 51.50207 | 8.30697 | 4802 ft | 255 kts | 282° |
| 2026-05-08 10:17 | 51.50938 | 8.28139 | 4485 ft | 254 kts | 308° |
| 2026-05-08 10:17 | 51.52286 | 8.26357 | 4164 ft | 253 kts | 334° |
| 2026-05-08 10:18 | 51.53954 | 8.25684 | 3863 ft | 251 kts | 0° |
| 2026-05-08 10:18 | 51.55651 | 8.26212 | 3536 ft | 248 kts | 25° |
| 2026-05-08 10:18 | 51.57031 | 8.27823 | 3229 ft | 247 kts | 50° |
| 2026-05-08 10:18 | 51.57855 | 8.30212 | 3129 ft | 239 kts | 76° |
| 2026-05-08 10:19 | 51.58001 | 8.32695 | 3131 ft | 210 kts | 97° |
| 2026-05-08 10:19 | 51.57638 | 8.34822 | 3125 ft | 186 kts | 114° |
| 2026-05-08 10:19 | 51.57093 | 8.36590 | 3059 ft | 170 kts | 118° |
| 2026-05-08 10:20 | 51.56074 | 8.39602 | 2936 ft | 139 kts | 118° |
| 2026-05-08 10:20 | 51.55624 | 8.40928 | 2745 ft | 130 kts | 119° |
| 2026-05-08 10:20 | 51.55208 | 8.42167 | 2507 ft | 124 kts | 117° |
| 2026-05-08 10:20 | 51.54906 | 8.43476 | 2344 ft | 126 kts | 103° |
| 2026-05-08 10:21 | 51.54899 | 8.44887 | 2224 ft | 127 kts | 82° |
| 2026-05-08 10:21 | 51.55181 | 8.46245 | 2183 ft | 129 kts | 67° |
| 2026-05-08 10:21 | 51.55635 | 8.47497 | 2189 ft | 130 kts | 58° |
| 2026-05-08 10:21 | 51.56139 | 8.48703 | 2182 ft | 129 kts | 61° |
| 2026-05-08 10:22 | 51.56634 | 8.49913 | 2074 ft | 129 kts | 61° |
| 2026-05-08 10:22 | 51.57122 | 8.51110 | 2041 ft | 129 kts | 61° |
| 2026-05-08 10:22 | 51.57636 | 8.52373 | 1947 ft | 136 kts | 60° |
| 2026-05-08 10:22 | 51.58147 | 8.53622 | 1751 ft | 131 kts | 59° |
| 2026-05-08 10:23 | 51.58641 | 8.54835 | 1558 ft | 129 kts | 58° |
| 2026-05-08 10:23 | 51.59130 | 8.56036 | 1377 ft | 128 kts | 58° |
| 2026-05-08 10:23 | 51.59614 | 8.57223 | 1203 ft | 125 kts | 58° |
| 2026-05-08 10:23 | 51.60087 | 8.58380 | 1054 ft | 124 kts | 57° |
| 2026-05-08 10:24 | 51.60562 | 8.59556 | 884 ft | 124 kts | 58° |
| 2026-05-08 10:24 | 51.61032 | 8.60710 | 725 ft | 120 kts | 58° |
| 2026-05-08 10:24 | 51.61408 | 8.61629 | 713 ft | 61 kts | 57° |
| 2026-05-08 10:24 | 51.61490 | 8.61832 | 700 ft | 1 kts | 60° |
| 2026-05-08 10:25 | 51.61492 | 8.61852 | 703 ft | 1 kts | 106° |
| 2026-05-08 10:25 | 51.61489 | 8.61854 | 704 ft | 1 kts | 142° |
| 2026-05-08 10:25 | 51.61460 | 8.61837 | 703 ft | 3 kts | 185° |
| 2026-05-08 10:25 | 51.61442 | 8.61871 | 705 ft | 8 kts | 109° |
| 2026-05-08 10:26 | 51.61425 | 8.61996 | 705 ft | 6 kts | 137° |
| 2026-05-08 10:26 | 51.61391 | 8.62022 | 706 ft | 5 kts | 158° |
| 2026-05-08 10:26 | 51.61367 | 8.62022 | 704 ft | 3 kts | 187° |
| 2026-05-08 10:26 | 51.61335 | 8.62012 | 700 ft | 10 kts | 191° |
| 2026-05-08 10:27 | 51.61246 | 8.61981 | 700 ft | 11 kts | 192° |
| 2026-05-08 10:27 | 51.61218 | 8.61969 | 702 ft | 8 kts | 201° |
| 2026-05-08 10:27 | 51.61179 | 8.61968 | 708 ft | 4 kts | 157° |
| 2026-05-08 10:27 | 51.61159 | 8.61990 | 704 ft | 2 kts | 146° |